Time;durP1;ratioP1;P1;durP2;ratioP2;P2;SDS_P1;SDS_P2;PMS_P1;PMS_P2;Temp;Humidity;BMP_temperature;BMP_pressure;BME280_temperature;BME280_humidity;BME280_pressure;Samples;Min_cycle;Max_cycle;Signal;HPM_P1;HPM_P2
2022/08/03 00:01:06;;;;;;;9.70;3.85;;;19.00;99.90;;;;;;5055392;28;20045;-77
2022/08/03 00:03:32;;;;;;;9.90;3.88;;;19.00;99.90;;;;;;5056445;28;20052;-77
2022/08/03 00:05:58;;;;;;;12.95;4.50;;;19.00;99.90;;;;;;5055355;28;20106;-76
2022/08/03 00:08:24;;;;;;;11.77;4.32;;;19.00;99.90;;;;;;5056477;28;20547;-76
2022/08/03 00:10:49;;;;;;;9.20;4.07;;;19.00;99.90;;;;;;5055508;28;20385;-77
2022/08/03 00:13:15;;;;;;;10.43;4.22;;;19.00;99.90;;;;;;5056411;28;20508;-76
2022/08/03 00:15:42;;;;;;;8.82;4.60;;;19.00;99.90;;;;;;5056179;28;20037;-76
2022/08/03 00:18:08;;;;;;;10.75;3.70;;;19.00;99.90;;;;;;5056261;28;20048;-76
2022/08/03 00:20:34;;;;;;;10.13;3.92;;;19.00;99.90;;;;;;5055733;28;20037;-76
2022/08/03 00:22:59;;;;;;;8.80;4.35;;;19.00;99.90;;;;;;5055498;28;20044;-76
2022/08/03 00:25:25;;;;;;;13.75;3.65;;;19.00;99.90;;;;;;5054900;28;20381;-76
2022/08/03 00:27:51;;;;;;;8.65;3.67;;;19.00;99.90;;;;;;5055953;28;20439;-76
2022/08/03 00:30:16;;;;;;;8.63;4.15;;;18.90;99.90;;;;;;5055922;28;20091;-76
2022/08/03 00:32:42;;;;;;;12.75;4.55;;;19.00;99.90;;;;;;5055943;28;20083;-76
2022/08/03 00:35:08;;;;;;;7.95;3.97;;;18.90;99.90;;;;;;5054725;28;20041;-76
2022/08/03 00:37:34;;;;;;;10.98;3.90;;;19.00;99.90;;;;;;5054823;28;20102;-76
2022/08/03 00:39:59;;;;;;;7.80;4.38;;;18.90;99.90;;;;;;5056325;28;20495;-76
2022/08/03 00:42:25;;;;;;;10.65;4.05;;;18.90;99.90;;;;;;5055304;28;20128;-76
2022/08/03 00:44:51;;;;;;;11.40;3.80;;;19.00;99.90;;;;;;5055824;28;20080;-76
2022/08/03 00:47:16;;;;;;;9.65;4.20;;;19.00;99.90;;;;;;5055822;28;20132;-76
2022/08/03 00:49:42;;;;;;;9.10;4.03;;;18.90;99.90;;;;;;5054423;28;20045;-76
2022/08/03 00:52:09;;;;;;;8.52;4.32;;;18.90;99.90;;;;;;5055659;28;20072;-76
2022/08/03 00:54:36;;;;;;;8.20;3.88;;;18.90;99.90;;;;;;5055539;28;20464;-76
2022/08/03 00:57:02;;;;;;;11.23;4.47;;;18.90;99.90;;;;;;5054149;28;20055;-76
2022/08/03 00:59:29;;;;;;;13.23;4.75;;;18.90;99.90;;;;;;5054197;28;20124;-76
2022/08/03 01:01:55;;;;;;;11.30;4.50;;;18.90;99.90;;;;;;5054197;28;20045;-76
2022/08/03 01:04:21;;;;;;;12.82;4.35;;;18.90;99.90;;;;;;5055381;28;20554;-76
2022/08/03 01:07:10;;;;;;;9.00;4.40;;;18.90;99.90;;;;;;5053999;28;20128;-76
2022/08/03 01:09:50;;;;;;;9.63;3.83;;;18.80;99.90;;;;;;5055164;28;20446;-76
2022/08/03 01:12:54;;;;;;;12.93;4.13;;;18.90;99.90;;;;;;5055313;28;20053;-76
2022/08/03 01:15:43;;;;;;;12.15;4.75;;;18.80;99.90;;;;;;5048660;28;20091;-76
2022/08/03 01:18:14;;;;;;;12.05;4.20;;;18.80;99.90;;;;;;5055458;28;20045;-76
2022/08/03 01:20:46;;;;;;;8.98;3.65;;;18.80;99.90;;;;;;5055252;28;20064;-76
2022/08/03 01:23:21;;;;;;;11.00;4.18;;;18.80;99.90;;;;;;5055129;28;20491;-76
2022/08/03 01:26:20;;;;;;;10.00;4.32;;;18.70;99.90;;;;;;5053699;28;20080;-76
2022/08/03 01:29:19;;;;;;;8.85;4.22;;;18.70;99.90;;;;;;5054952;28;20067;-76
2022/08/03 01:31:57;;;;;;;10.55;4.03;;;18.70;99.90;;;;;;5054943;28;20071;-76
2022/08/03 01:34:28;;;;;;;11.15;3.85;;;18.70;99.90;;;;;;5054844;28;20045;-76
2022/08/03 01:36:57;;;;;;;12.32;4.00;;;18.70;99.90;;;;;;5053961;28;20124;-76
2022/08/03 01:39:25;;;;;;;10.05;3.67;;;18.70;99.90;;;;;;5054904;28;20041;-76
2022/08/03 01:41:58;;;;;;;8.93;4.18;;;18.70;99.90;;;;;;5054713;28;20041;-76
2022/08/03 01:44:29;;;;;;;;;;;18.70;99.90;;;;;;5053766;28;20415;-76
2022/08/03 01:46:58;;;;;;;13.30;4.20;;;18.70;99.90;;;;;;5054823;28;19999;-76
2022/08/03 01:49:25;;;;;;;12.40;4.18;;;18.70;99.90;;;;;;5054603;28;20120;-76
2022/08/03 01:51:52;;;;;;;14.27;4.20;;;18.60;99.90;;;;;;5054596;28;20041;-76
2022/08/03 01:54:20;;;;;;;10.43;4.20;;;18.70;99.90;;;;;;5053453;28;20045;-76
2022/08/03 01:56:50;;;;;;;12.82;3.72;;;18.60;99.90;;;;;;5054426;28;20045;-76
2022/08/03 01:59:18;;;;;;;9.98;4.43;;;18.60;99.90;;;;;;5052889;28;20503;-76
2022/08/03 02:01:44;;;;;;;8.48;3.75;;;18.60;99.90;;;;;;5054391;28;20056;-76
2022/08/03 02:04:13;;;;;;;13.98;3.97;;;18.60;99.90;;;;;;5054129;28;20480;-76
2022/08/03 02:06:40;;;;;;;10.13;3.83;;;18.60;99.90;;;;;;5054127;28;20044;-76
2022/08/03 02:09:06;;;;;;;10.18;3.58;;;18.60;99.90;;;;;;5054250;28;20041;-76
2022/08/03 02:11:34;;;;;;;11.20;3.28;;;18.60;99.90;;;;;;5037197;28;20049;-76
2022/08/03 02:14:02;;;;;;;11.82;4.03;;;18.60;99.90;;;;;;5034227;28;20397;-76
2022/08/03 02:16:31;;;;;;;8.20;3.78;;;18.60;99.90;;;;;;5033995;28;20433;-76
2022/08/03 02:18:59;;;;;;;8.20;3.63;;;18.60;99.90;;;;;;5032762;28;20041;-76
2022/08/03 02:21:27;;;;;;;11.45;3.50;;;18.60;99.90;;;;;;5034123;28;20124;-76
2022/08/03 02:23:53;;;;;;;7.72;4.22;;;18.60;99.90;;;;;;5033748;28;20511;-76
2022/08/03 02:26:21;;;;;;;9.95;3.45;;;18.50;99.90;;;;;;5032518;28;20053;-76
2022/08/03 02:28:51;;;;;;;11.52;3.70;;;18.60;99.90;;;;;;5033786;28;20057;-76
2022/08/03 02:31:29;;;;;;;9.13;3.90;;;18.50;99.90;;;;;;5033970;28;20053;-76
2022/08/03 02:34:05;;;;;;;11.20;3.78;;;18.40;99.90;;;;;;5032929;28;20045;-76
2022/08/03 02:36:36;;;;;;;11.40;3.80;;;18.50;99.90;;;;;;5033866;28;20045;-76
2022/08/03 02:39:04;;;;;;;10.02;3.50;;;18.40;99.90;;;;;;5032495;28;20056;-76
2022/08/03 02:41:48;;;;;;;11.95;4.15;;;18.40;99.90;;;;;;5032503;28;20160;-76
2022/08/03 02:44:18;;;;;;;9.07;3.00;;;18.40;99.90;;;;;;5033147;28;20037;-76
2022/08/03 02:46:48;;;;;;;8.77;3.60;;;18.40;99.90;;;;;;5032478;28;20057;-76
2022/08/03 02:49:17;;;;;;;10.68;3.50;;;18.40;99.90;;;;;;5033765;28;20095;-76
2022/08/03 02:51:46;;;;;;;8.02;3.30;;;18.40;99.90;;;;;;5033759;28;20045;-76
2022/08/03 02:54:16;;;;;;;11.50;3.60;;;18.30;99.90;;;;;;5033707;28;20496;-76
2022/08/03 02:56:44;;;;;;;10.13;3.38;;;18.40;99.90;;;;;;5032213;28;20365;-77
2022/08/03 02:59:12;;;;;;;9.98;3.85;;;18.30;99.90;;;;;;5032375;28;20080;-76
2022/08/03 03:01:38;;;;;;;14.95;3.47;;;18.30;99.90;;;;;;5034060;28;20050;-76
2022/08/03 03:04:04;;;;;;;13.02;3.50;;;18.30;99.90;;;;;;5033638;28;20045;-76
2022/08/03 03:06:31;;;;;;;14.38;3.47;;;18.30;99.90;;;;;;5032255;28;20480;-76
2022/08/03 03:08:57;;;;;;;9.88;3.30;;;18.30;99.90;;;;;;5033404;28;20500;-76
2022/08/03 03:11:25;;;;;;;12.10;4.47;;;18.30;99.90;;;;;;5033627;28;20497;-76
2022/08/03 03:13:51;;;;;;;11.43;3.67;;;18.30;99.90;;;;;;5033485;28;20049;-76
2022/08/03 03:16:18;;;;;;;10.32;3.30;;;18.30;99.90;;;;;;5033501;28;20042;-76
2022/08/03 03:18:46;;;;;;;9.60;2.95;;;18.30;99.90;;;;;;5033266;28;20428;-76
2022/08/03 03:21:15;;;;;;;13.07;3.40;;;18.30;99.90;;;;;;5032063;28;20543;-76
2022/08/03 03:23:41;;;;;;;10.30;3.65;;;18.40;99.90;;;;;;5032158;28;20046;-76
2022/08/03 03:26:07;;;;;;;7.88;3.17;;;18.40;99.90;;;;;;5032195;28;20124;-76
2022/08/03 03:28:35;;;;;;;11.32;3.42;;;18.30;99.90;;;;;;5033065;28;20104;-76
2022/08/03 03:31:04;;;;;;;11.68;3.55;;;18.30;99.90;;;;;;5033148;28;20481;-76
2022/08/03 03:33:29;;;;;;;11.30;2.90;;;18.30;99.90;;;;;;5031908;28;20063;-76
2022/08/03 03:35:56;;;;;;;8.73;3.22;;;18.30;99.90;;;;;;5033334;28;20116;-76
2022/08/03 03:38:22;;;;;;;12.35;3.42;;;18.30;99.90;;;;;;5031978;28;20077;-76
2022/08/03 03:40:48;;;;;;;9.15;3.40;;;18.30;99.90;;;;;;5031955;28;20081;-76
2022/08/03 03:43:13;;;;;;;10.18;3.40;;;18.30;99.90;;;;;;5031944;28;20046;-76
2022/08/03 03:45:42;;;;;;;9.45;2.88;;;18.30;99.90;;;;;;5032878;28;20100;-76
2022/08/03 03:48:08;;;;;;;9.05;2.83;;;18.30;99.90;;;;;;5032252;28;20053;-76
2022/08/03 03:50:36;;;;;;;8.77;3.17;;;18.30;99.90;;;;;;5031436;28;20132;-76
2022/08/03 03:53:02;;;;;;;11.52;3.90;;;18.30;99.90;;;;;;5032674;28;20103;-76
2022/08/03 03:55:29;;;;;;;9.43;2.90;;;18.30;99.90;;;;;;5033716;28;20049;-76
2022/08/03 03:57:55;;;;;;;8.93;3.30;;;18.30;99.90;;;;;;5036690;28;20045;-77
2022/08/03 04:00:21;;;;;;;11.73;3.65;;;18.30;99.90;;;;;;5035192;28;20045;-77
2022/08/03 04:02:46;;;;;;;9.55;3.28;;;18.30;99.90;;;;;;5035463;28;20053;-76
2022/08/03 04:11:16;;;;;;;12.13;4.50;;;18.20;99.90;;;;;;5012588;28;20050;-77
2022/08/03 04:13:55;;;;;;;8.80;3.33;;;18.30;99.90;;;;;;5035214;28;20501;-76
2022/08/03 04:16:29;;;;;;;11.13;3.50;;;18.30;99.90;;;;;;5036198;28;20045;-76
2022/08/03 04:19:00;;;;;;;10.07;2.95;;;18.30;99.90;;;;;;5036314;28;20080;-76
2022/08/03 04:21:29;;;;;;;8.13;3.28;;;18.30;99.90;;;;;;5036245;28;20103;-76
2022/08/03 04:23:59;;;;;;;9.85;2.90;;;18.30;99.90;;;;;;5035988;28;20064;-76
2022/08/03 04:26:28;;;;;;;11.38;3.33;;;18.30;99.90;;;;;;5034629;28;20103;-77
2022/08/03 04:28:54;;;;;;;13.93;3.58;;;18.30;99.90;;;;;;5034523;28;20053;-76
2022/08/03 04:31:22;;;;;;;10.38;3.13;;;18.30;99.90;;;;;;5036125;28;20496;-76
2022/08/03 04:33:50;;;;;;;9.30;2.70;;;18.30;99.90;;;;;;5035956;28;20041;-76
2022/08/03 04:36:19;;;;;;;17.88;4.45;;;18.20;99.90;;;;;;5035976;28;20053;-76
2022/08/03 04:38:58;;;;;;;10.10;3.13;;;18.30;99.90;;;;;;5035980;28;20128;-76
2022/08/03 04:41:25;;;;;;;8.68;3.08;;;18.30;99.90;;;;;;5034512;28;20194;-76
2022/08/03 04:43:54;;;;;;;12.50;2.83;;;18.30;99.90;;;;;;5035921;28;20053;-76
2022/08/03 04:46:22;;;;;;;9.13;2.90;;;18.30;99.90;;;;;;5035816;28;20049;-77
2022/08/03 04:48:48;;;;;;;9.73;3.72;;;18.40;99.90;;;;;;5034388;28;20045;-76
2022/08/03 04:51:14;;;;;;;10.88;2.95;;;18.40;99.90;;;;;;5035431;28;20110;-76
2022/08/03 04:53:41;;;;;;;16.85;3.42;;;18.40;99.90;;;;;;5034181;28;20382;-76
2022/08/03 04:56:07;;;;;;;13.30;3.22;;;18.40;99.90;;;;;;5035574;28;20060;-76
2022/08/03 04:58:33;;;;;;;9.30;3.03;;;18.40;99.90;;;;;;5035659;28;20481;-77
2022/08/03 05:00:58;;;;;;;15.18;3.25;;;18.40;99.90;;;;;;5035431;28;20068;-76
2022/08/03 05:03:24;;;;;;;15.25;3.45;;;18.50;99.90;;;;;;5034351;28;20045;-77
2022/08/03 05:05:54;;;;;;;10.68;3.25;;;18.50;99.90;;;;;;5035409;28;20045;-76
2022/08/03 05:08:19;;;;;;;12.27;3.35;;;18.50;99.90;;;;;;5033474;28;20128;-76
2022/08/03 05:10:46;;;;;;;7.63;2.88;;;18.60;99.90;;;;;;5035298;28;20454;-77
2022/08/03 05:13:12;;;;;;;17.08;4.30;;;18.60;99.90;;;;;;5035274;28;20053;-77
2022/08/03 05:15:38;;;;;;;13.05;3.30;;;18.60;99.90;;;;;;5035141;28;20432;-76
2022/08/03 05:18:04;;;;;;;14.38;3.90;;;18.60;99.90;;;;;;5033990;28;20057;-77
2022/08/03 05:20:30;;;;;;;14.25;3.33;;;18.60;99.90;;;;;;5034968;28;20060;-76
2022/08/03 05:22:56;;;;;;;10.05;3.75;;;18.60;99.90;;;;;;5033609;28;20073;-76
2022/08/03 05:25:22;;;;;;;8.45;3.30;;;18.70;99.90;;;;;;5033577;28;20057;-77
2022/08/03 05:27:48;;;;;;;15.10;3.45;;;18.70;99.90;;;;;;5033669;28;20047;-77
2022/08/03 05:30:13;;;;;;;9.80;3.78;;;18.70;99.90;;;;;;5033522;28;20496;-77
2022/08/03 05:32:39;;;;;;;9.02;3.15;;;18.80;99.90;;;;;;5033744;28;20069;-76
2022/08/03 05:35:05;;;;;;;13.07;4.38;;;18.80;99.90;;;;;;5033518;28;20107;-77
2022/08/03 05:37:31;;;;;;;12.60;3.45;;;18.90;99.90;;;;;;5033707;28;20435;-76
2022/08/03 05:39:56;;;;;;;7.50;3.05;;;19.00;99.90;;;;;;5033593;28;20045;-76
2022/08/03 05:42:22;;;;;;;14.30;3.50;;;18.90;99.90;;;;;;5033375;28;20041;-76
2022/08/03 05:44:48;;;;;;;15.43;4.25;;;19.10;99.90;;;;;;5033606;28;20072;-76
2022/08/03 05:47:13;;;;;;;12.23;3.60;;;19.10;99.90;;;;;;5034610;28;20048;-77
2022/08/03 05:49:39;;;;;;;10.80;3.38;;;19.20;99.90;;;;;;5033408;28;20405;-77
2022/08/03 05:52:04;;;;;;;9.50;3.03;;;19.30;99.90;;;;;;5034593;28;20063;-76
2022/08/03 05:54:30;;;;;;;12.73;3.53;;;19.40;99.90;;;;;;5032996;28;20044;-76
2022/08/03 05:56:56;;;;;;;11.05;3.30;;;19.40;99.90;;;;;;5034192;28;20045;-76
2022/08/03 05:59:21;;;;;;;14.20;4.05;;;19.50;99.90;;;;;;5033218;28;20041;-77
2022/08/03 06:01:47;;;;;;;12.35;3.10;;;19.60;99.90;;;;;;5033377;28;20045;-77
2022/08/03 06:04:13;;;;;;;12.60;3.60;;;19.70;99.90;;;;;;5034407;28;20100;-77
2022/08/03 06:06:38;;;;;;;11.75;3.38;;;19.80;99.90;;;;;;5033125;28;20539;-77
2022/08/03 06:09:04;;;;;;;15.00;3.17;;;20.00;99.90;;;;;;5033994;28;20045;-77
2022/08/03 06:11:30;;;;;;;9.25;2.88;;;20.00;99.90;;;;;;5034567;28;20382;-77
2022/08/03 06:13:55;;;;;;;12.40;3.50;;;20.10;99.90;;;;;;5032825;28;20096;-77
2022/08/03 06:16:21;;;;;;;11.95;3.40;;;20.30;99.90;;;;;;5034196;28;20049;-77
2022/08/03 06:18:46;;;;;;;11.48;3.35;;;20.40;99.90;;;;;;5031985;28;20457;-77
2022/08/03 06:21:12;;;;;;;10.95;3.58;;;20.50;99.90;;;;;;5032325;28;20045;-77
2022/08/03 06:23:38;;;;;;;13.88;3.88;;;20.60;99.90;;;;;;5032494;28;20049;-77
2022/08/03 06:26:03;;;;;;;11.65;3.50;;;20.70;99.90;;;;;;5032463;28;20054;-77
2022/08/03 06:28:29;;;;;;;19.85;4.15;;;20.80;99.90;;;;;;5033591;28;20060;-77
2022/08/03 06:30:55;;;;;;;10.50;3.53;;;20.90;99.90;;;;;;5033905;28;20056;-77
2022/08/03 06:33:20;;;;;;;10.73;3.30;;;21.00;99.90;;;;;;5033934;28;20099;-77
2022/08/03 06:35:46;;;;;;;12.40;3.17;;;21.10;99.90;;;;;;5033650;28;20458;-77
2022/08/03 06:38:11;;;;;;;13.48;3.20;;;21.20;99.90;;;;;;5033589;28;20049;-77
2022/08/03 06:40:41;;;;;;;13.90;4.72;;;21.30;99.90;;;;;;5033851;28;20029;-77
2022/08/03 06:43:07;;;;;;;13.38;3.78;;;21.30;99.90;;;;;;5033538;28;20168;-77
2022/08/03 06:45:34;;;;;;;9.30;3.55;;;21.40;99.90;;;;;;5033567;28;20049;-77
2022/08/03 06:48:08;;;;;;;15.18;3.85;;;21.50;99.90;;;;;;5031821;28;20134;-77
2022/08/03 06:50:35;;;;;;;15.35;3.88;;;21.70;99.90;;;;;;5032020;28;20041;-77
2022/08/03 06:53:01;;;;;;;11.05;3.75;;;21.70;99.90;;;;;;5032210;28;20054;-77
2022/08/03 06:55:27;;;;;;;9.15;3.45;;;21.80;99.90;;;;;;5032179;28;20084;-77
2022/08/03 06:57:53;;;;;;;15.63;4.28;;;21.90;99.90;;;;;;5040596;28;20072;-76
2022/08/03 07:00:19;;;;;;;11.60;4.00;;;22.00;99.90;;;;;;5035737;28;20044;-76
2022/08/03 07:02:46;;;;;;;14.63;4.15;;;22.10;99.90;;;;;;5033437;28;20049;-77
2022/08/03 07:05:12;;;;;;;11.65;4.57;;;22.30;99.90;;;;;;5033095;28;20460;-77
2022/08/03 07:07:38;;;;;;;12.68;4.65;;;22.30;99.90;;;;;;5033299;28;20042;-77
2022/08/03 07:10:05;;;;;;;12.68;5.57;;;22.30;99.90;;;;;;5033413;28;20037;-79
2022/08/03 07:12:31;;;;;;;12.82;4.57;;;22.30;99.90;;;;;;5031997;28;20128;-76
2022/08/03 07:14:58;;;;;;;13.90;4.60;;;22.30;99.90;;;;;;5031768;28;20453;-76
2022/08/03 07:17:24;;;;;;;15.93;5.30;;;22.40;99.90;;;;;;5032018;28;20049;-77
2022/08/03 07:19:50;;;;;;;15.70;4.88;;;22.50;99.90;;;;;;5032830;28;20057;-76
2022/08/03 07:22:16;;;;;;;14.68;5.72;;;22.60;99.90;;;;;;5032000;28;20049;-76
2022/08/03 07:24:41;;;;;;;15.05;5.30;;;22.70;99.90;;;;;;5031977;28;20485;-77
2022/08/03 07:27:08;;;;;;;15.32;5.90;;;22.70;99.90;;;;;;5031601;28;20045;-77
2022/08/03 07:29:35;;;;;;;13.63;6.03;;;22.60;99.90;;;;;;5031488;28;20057;-76
2022/08/03 07:32:01;;;;;;;14.18;6.18;;;22.60;99.90;;;;;;5034847;28;20049;-77
2022/08/03 07:34:26;;;;;;;11.55;5.80;;;22.60;99.90;;;;;;5035425;28;20107;-76
2022/08/03 07:36:52;;;;;;;11.63;5.97;;;22.70;99.90;;;;;;5035509;28;20049;-77
2022/08/03 07:39:18;;;;;;;15.98;6.30;;;22.70;99.90;;;;;;5035592;28;20053;-76
2022/08/03 07:41:44;;;;;;;13.73;6.40;;;22.80;99.90;;;;;;5035469;28;20056;-77
2022/08/03 07:44:10;;;;;;;14.25;5.82;;;23.00;99.90;;;;;;5035621;28;20488;-79
2022/08/03 07:46:36;;;;;;;18.10;6.18;;;23.20;99.90;;;;;;5035371;28;20052;-77
2022/08/03 07:49:02;;;;;;;20.88;6.00;;;23.50;99.90;;;;;;5036588;28;20049;-77
2022/08/03 07:51:27;;;;;;;12.10;5.68;;;23.50;99.90;;;;;;5036744;28;20033;-77
2022/08/03 07:53:56;;;;;;;12.82;5.10;;;23.60;99.90;;;;;;5045522;28;20048;-76
2022/08/03 07:56:23;;;;;;;17.23;5.88;;;23.60;99.90;;;;;;5050735;28;20048;-76
2022/08/03 07:58:50;;;;;;;16.33;6.15;;;23.70;99.90;;;;;;5044865;28;20048;-76
2022/08/03 08:01:15;;;;;;;13.38;5.32;;;23.70;99.90;;;;;;5044950;28;20049;-77
2022/08/03 08:03:41;;;;;;;15.45;5.15;;;23.70;99.90;;;;;;5045881;28;20044;-76
2022/08/03 08:06:07;;;;;;;12.98;4.88;;;23.90;99.90;;;;;;5044580;28;20050;-76
2022/08/03 08:08:33;;;;;;;12.52;4.40;;;24.10;99.90;;;;;;5050629;28;20086;-77
2022/08/03 08:10:59;;;;;;;20.60;7.10;;;24.20;99.90;;;;;;5054934;28;20045;-78
2022/08/03 08:13:25;;;;;;;17.42;5.13;;;24.40;99.90;;;;;;5056254;28;20041;-77
2022/08/03 08:15:50;;;;;;;14.52;5.32;;;24.50;99.90;;;;;;5054928;28;20044;-78
2022/08/03 08:18:17;;;;;;;16.13;5.10;;;24.60;99.90;;;;;;5054567;28;20444;-77
2022/08/03 08:20:42;;;;;;;16.55;4.95;;;24.60;99.90;;;;;;5054806;28;20049;-77
2022/08/03 08:23:08;;;;;;;10.52;4.95;;;24.70;99.90;;;;;;5054004;28;20396;-77
2022/08/03 08:25:34;;;;;;;14.60;6.78;;;24.70;99.90;;;;;;5054315;28;20041;-77
2022/08/03 08:28:02;;;;;;;11.70;4.68;;;24.70;99.90;;;;;;5054275;28;20144;-78
2022/08/03 08:30:28;;;;;;;15.35;4.85;;;24.80;99.90;;;;;;5054670;28;20049;-77
2022/08/03 08:32:53;;;;;;;15.40;4.82;;;24.80;99.90;;;;;;5054177;28;20381;-78
2022/08/03 08:35:19;;;;;;;13.82;5.03;;;25.00;99.90;;;;;;5055200;28;20409;-78
2022/08/03 08:37:45;;;;;;;19.63;6.13;;;25.10;99.90;;;;;;5042467;28;20060;-77
2022/08/03 08:40:15;;;;;;;14.32;5.60;;;25.10;99.90;;;;;;5049903;28;20055;-77
2022/08/03 08:42:44;;;;;;;14.50;4.88;;;25.20;99.90;;;;;;5052996;28;20037;-77
2022/08/03 08:45:10;;;;;;;15.70;5.35;;;25.40;99.90;;;;;;5055360;28;20075;-78
2022/08/03 08:47:43;;;;;;;15.27;5.35;;;25.30;99.90;;;;;;5054013;28;20057;-77
2022/08/03 08:50:10;;;;;;;15.95;5.45;;;25.30;99.90;;;;;;5054327;28;20045;-78
2022/08/03 08:52:38;;;;;;;17.83;5.45;;;25.30;99.90;;;;;;5055352;28;20049;-78
2022/08/03 08:55:06;;;;;;;14.82;5.55;;;25.50;99.90;;;;;;5053257;28;20037;-78
2022/08/03 08:57:48;;;;;;;12.25;5.15;;;25.60;99.90;;;;;;5055122;28;20041;-77
2022/08/03 09:00:14;;;;;;;20.77;5.72;;;25.50;99.90;;;;;;5053962;28;20056;-77
2022/08/03 09:02:44;;;;;;;14.30;5.28;;;25.60;99.90;;;;;;5054092;28;20053;-77
2022/08/03 09:05:15;;;;;;;16.25;5.95;;;25.80;99.90;;;;;;5054745;28;20041;-77
2022/08/03 09:07:43;;;;;;;17.10;6.30;;;25.70;99.90;;;;;;5053686;28;20053;-77
2022/08/03 09:10:11;;;;;;;17.60;5.95;;;25.80;99.90;;;;;;5055148;28;20116;-77
2022/08/03 09:12:45;;;;;;;11.05;4.95;;;26.00;99.90;;;;;;5053544;28;20053;-77
2022/08/03 09:15:31;;;;;;;14.50;5.75;;;26.10;99.90;;;;;;5053862;28;20040;-77
2022/08/03 09:17:59;;;;;;;15.23;6.80;;;26.20;99.90;;;;;;5054726;28;20483;-77
2022/08/03 09:20:28;;;;;;;16.30;6.25;;;26.50;99.90;;;;;;5054957;28;20041;-77
2022/08/03 09:23:04;;;;;;;12.50;6.65;;;26.50;99.90;;;;;;5053200;28;20056;-77
2022/08/03 09:25:34;;;;;;;19.02;6.25;;;26.50;99.90;;;;;;5052651;28;20044;-77
2022/08/03 09:28:14;;;;;;;16.73;7.68;;;26.50;99.90;;;;;;5053080;28;20064;-77
2022/08/03 09:30:43;;;;;;;22.50;7.07;;;26.50;99.90;;;;;;5053277;28;20408;-78
2022/08/03 09:33:12;;;;;;;16.67;6.55;;;26.50;99.90;;;;;;5052859;28;20057;-77
2022/08/03 09:35:48;;;;;;;15.27;6.15;;;26.60;99.90;;;;;;5054300;28;20053;-77
2022/08/03 09:38:22;;;;;;;20.83;7.47;;;26.60;99.90;;;;;;5052994;28;20064;-87
2022/08/03 09:40:48;;;;;;;19.80;7.68;;;26.40;99.90;;;;;;5052385;28;20080;-91
2022/08/03 09:43:14;;;;;;;16.27;6.40;;;26.50;99.90;;;;;;5052999;28;20056;-88
2022/08/03 09:45:41;;;;;;;18.75;7.03;;;26.50;99.90;;;;;;5052916;28;20041;-88
2022/08/03 09:48:26;;;;;;;15.55;5.90;;;26.60;99.90;;;;;;5054540;28;20082;-90
2022/08/03 09:50:54;;;;;;;12.27;6.50;;;26.60;99.90;;;;;;5052909;28;20052;-88
2022/08/03 09:53:20;;;;;;;15.68;8.40;;;26.80;99.90;;;;;;5053827;28;20052;-87
2022/08/03 09:56:04;;;;;;;17.90;7.47;;;26.50;99.90;;;;;;5053569;28;20049;-88
2022/08/03 09:58:30;;;;;;;12.98;7.60;;;26.40;99.90;;;;;;5052741;28;20045;-86
2022/08/03 10:00:57;;;;;;;23.55;8.23;;;26.30;99.90;;;;;;5052695;28;20056;-87
2022/08/03 10:03:24;;;;;;;16.90;8.32;;;26.30;99.90;;;;;;5052854;28;20045;-86
2022/08/03 10:05:50;;;;;;;14.02;7.20;;;26.50;99.90;;;;;;5052549;28;20043;-86
2022/08/03 10:08:18;;;;;;;14.65;6.80;;;26.60;99.90;;;;;;5052571;28;20049;-86
2022/08/03 10:10:45;;;;;;;15.25;7.10;;;26.80;99.90;;;;;;5053979;28;20099;-87
2022/08/03 10:13:13;;;;;;;12.70;7.63;;;27.10;99.90;;;;;;5054032;28;20048;-86
2022/08/03 10:15:39;;;;;;;19.08;8.48;;;27.10;99.90;;;;;;5052565;28;20510;-88
2022/08/03 10:18:06;;;;;;;18.92;8.52;;;26.80;99.90;;;;;;5052469;28;20059;-86
2022/08/03 10:20:37;;;;;;;17.13;8.23;;;26.80;99.90;;;;;;5052283;28;20129;-93
2022/08/03 10:23:03;;;;;;;19.85;8.85;;;26.90;99.90;;;;;;5052576;28;20044;-89
2022/08/03 10:25:31;;;;;;;17.05;8.25;;;26.90;99.90;;;;;;5053766;28;20033;-90
2022/08/03 10:28:00;;;;;;;14.70;7.78;;;26.90;99.90;;;;;;5052368;28;20147;-87
2022/08/03 10:30:28;;;;;;;21.00;9.20;;;27.10;99.90;;;;;;5053723;28;20059;-85
2022/08/03 10:33:11;;;;;;;17.95;8.38;;;27.00;99.90;;;;;;5053482;28;20106;-86
2022/08/03 10:35:38;;;;;;;18.27;8.27;;;27.00;99.90;;;;;;5052073;28;20060;-87
2022/08/03 10:38:11;;;;;;;17.70;8.65;;;27.10;99.90;;;;;;5052349;28;20400;-77
2022/08/03 10:40:37;;;;;;;19.60;8.23;;;27.20;99.90;;;;;;5053268;28;20447;-78
2022/08/03 10:43:08;;;;;;;20.20;9.32;;;27.20;99.90;;;;;;5053489;28;20110;-77
2022/08/03 10:45:40;;;;;;;15.82;7.95;;;27.40;99.90;;;;;;5053498;28;20033;-78
2022/08/03 10:48:07;;;;;;;15.45;8.48;;;27.50;99.90;;;;;;5052219;28;20507;-78
2022/08/03 10:50:33;;;;;;;15.48;9.48;;;27.40;99.90;;;;;;5052194;28;20049;-78
2022/08/03 10:53:05;;;;;;;18.02;8.57;;;27.20;99.90;;;;;;5053433;28;20099;-77
2022/08/03 10:58:35;;;;;;;19.92;8.25;;;27.20;99.90;;;;;;5052055;28;20056;-77
2022/08/03 11:01:02;;;;;;;18.83;9.77;;;27.40;99.90;;;;;;5052124;28;20049;-78
2022/08/03 11:03:27;;;;;;;16.92;8.52;;;27.30;99.90;;;;;;5051856;28;20098;-78
2022/08/03 11:06:17;;;;;;;17.48;10.02;;;27.20;99.90;;;;;;5053118;28;20041;-78
2022/08/03 11:08:44;;;;;;;19.95;9.23;;;27.00;99.90;;;;;;5057437;28;20045;-77
2022/08/03 11:11:18;;;;;;;19.17;8.80;;;27.00;99.90;;;;;;5055833;28;20052;-77
2022/08/03 11:13:58;;;;;;;21.30;9.55;;;26.90;99.90;;;;;;5056175;28;20507;-78
2022/08/03 11:16:26;;;;;;;29.83;9.40;;;26.70;99.90;;;;;;5056046;28;20044;-77
2022/08/03 11:19:00;;;;;;;20.40;9.15;;;26.50;99.90;;;;;;5056026;28;20118;-77
2022/08/03 11:21:50;;;;;;;17.15;8.35;;;26.50;99.90;;;;;;5055640;28;20500;-78
2022/08/03 11:24:40;;;;;;;16.48;9.00;;;26.40;99.90;;;;;;5056986;28;20492;-77
2022/08/03 11:27:17;;;;;;;20.42;8.60;;;26.40;99.90;;;;;;5056595;28;20045;-76
2022/08/03 11:29:58;;;;;;;16.42;8.68;;;26.30;99.90;;;;;;5056751;28;20090;-76
2022/08/03 11:32:36;;;;;;;17.95;9.18;;;26.40;99.90;;;;;;5056933;28;20049;-77
2022/08/03 11:35:26;;;;;;;20.02;8.68;;;26.50;99.90;;;;;;5056753;28;20045;-77
2022/08/03 11:37:58;;;;;;;21.42;9.23;;;26.50;99.90;;;;;;5055471;28;20048;-77
2022/08/03 11:40:33;;;;;;;21.00;9.73;;;26.50;99.90;;;;;;5056506;28;20041;-77
2022/08/03 11:42:59;;;;;;;21.70;10.20;;;26.40;99.90;;;;;;5056783;28;20049;-77
2022/08/03 11:45:25;;;;;;;23.15;9.65;;;26.30;99.90;;;;;;5055259;28;20041;-77
2022/08/03 11:47:54;;;;;;;19.17;9.65;;;26.30;99.90;;;;;;5055165;28;20049;-79
2022/08/03 11:50:21;;;;;;;22.58;9.77;;;26.20;99.90;;;;;;5055177;28;20053;-78
2022/08/03 11:52:47;;;;;;;18.73;9.73;;;26.40;99.90;;;;;;5056308;28;20508;-77
2022/08/03 11:55:15;;;;;;;20.90;9.80;;;26.30;99.90;;;;;;5056403;28;20085;-78
2022/08/03 11:57:42;;;;;;;18.88;10.63;;;26.30;99.90;;;;;;5056404;28;20048;-77
2022/08/03 12:00:19;;;;;;;17.52;10.00;;;26.40;99.90;;;;;;5056721;28;20037;-77
2022/08/03 12:03:04;;;;;;;20.48;9.85;;;26.60;99.90;;;;;;5056423;28;20126;-77
2022/08/03 12:05:38;;;;;;;20.13;9.48;;;26.60;99.90;;;;;;5054923;28;20091;-77
2022/08/03 12:08:05;;;;;;;19.85;9.80;;;26.60;99.90;;;;;;5054895;28;20049;-77
2022/08/03 12:10:31;;;;;;;19.13;8.90;;;26.40;99.90;;;;;;5056386;28;20045;-78
2022/08/03 12:12:59;;;;;;;21.55;9.40;;;26.50;99.90;;;;;;5054710;28;20051;-77
2022/08/03 12:15:26;;;;;;;24.02;9.80;;;26.50;99.90;;;;;;5055051;28;20049;-78
2022/08/03 12:17:52;;;;;;;17.95;9.95;;;26.40;99.90;;;;;;5054572;28;20122;-76
2022/08/03 12:20:23;;;;;;;22.73;10.68;;;26.40;99.90;;;;;;5056100;28;20121;-77
2022/08/03 12:22:49;;;;;;;15.57;8.48;;;26.50;99.90;;;;;;5055786;28;20557;-78
2022/08/03 12:25:26;;;;;;;19.85;9.43;;;26.60;99.90;;;;;;5054565;28;20640;-78
2022/08/03 12:27:53;;;;;;;18.45;9.60;;;26.80;99.90;;;;;;5054330;28;20434;-78
2022/08/03 12:30:19;;;;;;;22.17;9.52;;;26.90;99.90;;;;;;5054626;28;20053;-80
2022/08/03 12:32:45;;;;;;;20.63;9.85;;;26.80;99.90;;;;;;5055914;28;20099;-78
2022/08/03 12:35:24;;;;;;;24.02;9.63;;;26.80;99.90;;;;;;5054303;28;20063;-78
2022/08/03 12:37:51;;;;;;;20.08;9.65;;;26.70;99.90;;;;;;5054397;28;20080;-78
2022/08/03 12:40:26;;;;;;;17.00;8.63;;;26.60;99.90;;;;;;5054486;28;20053;-78
2022/08/03 12:42:51;;;;;;;22.30;9.30;;;26.60;99.90;;;;;;5055450;28;20076;-78
2022/08/03 12:45:26;;;;;;;17.10;8.40;;;26.50;99.90;;;;;;5055393;28;20084;-77
2022/08/03 12:47:56;;;;;;;18.85;9.02;;;26.60;99.90;;;;;;5054086;28;20084;-78
2022/08/03 12:50:29;;;;;;;22.02;9.15;;;26.70;99.90;;;;;;5055608;28;20045;-77
2022/08/03 12:52:56;;;;;;;22.23;8.90;;;26.80;99.90;;;;;;5055257;28;20435;-78
2022/08/03 12:55:22;;;;;;;21.48;8.98;;;26.90;99.90;;;;;;5054212;28;20044;-78